createdAt,value
2019-05-13T00:03:47.604Z,2.10
2019-05-13T00:08:54.168Z,2.00
2019-05-13T00:13:57.457Z,1.90
2019-05-13T00:19:03.971Z,1.80
2019-05-13T00:24:07.330Z,1.80
2019-05-13T00:29:11.391Z,1.70
2019-05-13T00:34:15.769Z,1.60
2019-05-13T00:39:19.770Z,1.50
2019-05-13T00:44:24.484Z,1.50
2019-05-13T00:49:28.644Z,1.50
2019-05-13T00:54:34.229Z,1.40
2019-05-13T00:59:38.431Z,1.40
2019-05-13T01:04:44.164Z,1.40
2019-05-13T01:09:48.504Z,1.30
2019-05-13T01:14:53.409Z,1.20
2019-05-13T01:19:57.896Z,1.10
2019-05-13T01:25:03.926Z,1.00
2019-05-13T01:30:09.374Z,0.90
2019-05-13T01:35:14.905Z,0.90
2019-05-13T01:40:19.119Z,0.80
2019-05-13T01:45:24.093Z,0.70
2019-05-13T01:50:29.353Z,0.70
2019-05-13T01:55:34.124Z,0.60
2019-05-13T02:00:38.399Z,0.60
2019-05-13T02:05:44.334Z,0.60
2019-05-13T02:10:54.865Z,0.60
2019-05-13T02:15:59.114Z,0.50
2019-05-13T02:21:05.275Z,0.40
2019-05-13T02:26:09.061Z,0.30
2019-05-13T02:31:18.871Z,0.30
2019-05-13T02:36:22.562Z,0.20
2019-05-13T02:41:25.146Z,0.20
2019-05-13T02:46:28.313Z,0.10
2019-05-13T02:51:32.962Z,0.10
2019-05-13T02:56:37.056Z,0.00
2019-05-13T03:01:43.188Z,0.00
2019-05-13T03:06:47.561Z,0.00
2019-05-13T03:11:53.574Z,-0.10
2019-05-13T03:17:12.836Z,-0.10
2019-05-13T03:22:15.566Z,-0.20
2019-05-13T03:27:23.984Z,-0.20
2019-05-13T03:32:27.481Z,-0.20
2019-05-13T03:37:34.854Z,-0.30
2019-05-13T03:42:42.506Z,-0.30
2019-05-13T03:47:48.900Z,-0.30
2019-05-13T03:52:53.247Z,-0.30
2019-05-13T03:57:57.889Z,-0.30
2019-05-13T04:03:03.450Z,-0.30
2019-05-13T04:08:07.758Z,-0.10
2019-05-13T04:13:12.719Z,0.40
2019-05-13T04:18:17.538Z,1.20
2019-05-13T04:23:23.267Z,1.90
2019-05-13T04:28:27.731Z,2.70
2019-05-13T04:33:33.624Z,3.10
2019-05-13T04:38:38.187Z,3.60
2019-05-13T04:43:43.549Z,4.50
2019-05-13T04:48:47.717Z,5.30
2019-05-13T04:53:56.121Z,6.10
2019-05-13T04:58:57.921Z,6.80
2019-05-13T05:04:22.557Z,7.50
2019-05-13T05:10:17.447Z,8.30
2019-05-13T05:15:35.149Z,9.10
2019-05-13T05:21:03.443Z,10.10
2019-05-13T05:26:25.239Z,10.70
2019-05-13T05:31:51.818Z,11.30
2019-05-13T05:37:18.869Z,11.70
2019-05-13T05:42:25.094Z,12.10
2019-05-13T05:47:31.772Z,11.60
2019-05-13T05:52:37.423Z,11.60
2019-05-13T05:57:43.056Z,12.20
2019-05-13T06:02:49.545Z,13.50
2019-05-13T06:07:53.692Z,14.10
2019-05-13T06:13:01.693Z,14.20
2019-05-13T06:18:05.665Z,14.80
2019-05-13T06:23:11.492Z,14.80
2019-05-13T06:28:15.766Z,15.00
2019-05-13T06:33:21.196Z,15.40
2019-05-13T06:38:25.378Z,16.20
2019-05-13T06:43:31.474Z,16.40
2019-05-13T06:48:36.131Z,16.60
2019-05-13T06:53:41.471Z,17.10
2019-05-13T06:58:45.707Z,17.50
2019-05-13T07:03:51.823Z,18.10
2019-05-13T07:08:55.571Z,18.40
2019-05-13T07:14:02.086Z,18.30
2019-05-13T07:19:05.456Z,18.20
2019-05-13T07:24:12.386Z,18.50
2019-05-13T07:29:16.487Z,18.80
2019-05-13T07:34:24.621Z,19.10
2019-05-13T07:39:28.634Z,18.80
2019-05-13T07:44:33.365Z,17.90
2019-05-13T07:49:37.573Z,17.40
2019-05-13T07:54:42.128Z,18.00
2019-05-13T07:59:45.998Z,18.40
2019-05-13T08:04:53.208Z,18.60
2019-05-13T08:10:00.215Z,18.90
2019-05-13T08:15:06.921Z,19.80
2019-05-13T08:20:12.519Z,21.00
2019-05-13T08:25:17.131Z,21.30
2019-05-13T08:30:22.716Z,21.00
2019-05-13T08:35:27.471Z,21.30
2019-05-13T08:40:31.696Z,21.70
2019-05-13T08:45:36.388Z,21.70
2019-05-13T08:50:41.774Z,21.50
2019-05-13T08:55:46.547Z,21.30
2019-05-13T09:00:58.635Z,21.00
2019-05-13T09:06:02.746Z,21.70
2019-05-13T09:11:06.710Z,21.30
2019-05-13T09:16:13.321Z,20.90
2019-05-13T09:21:17.436Z,21.10
2019-05-13T09:26:22.560Z,21.10
2019-05-13T09:31:26.609Z,21.50
2019-05-13T09:36:32.413Z,21.50
2019-05-13T09:41:40.891Z,20.80
2019-05-13T09:46:42.672Z,21.20
2019-05-13T09:51:47.043Z,21.20
2019-05-13T09:56:52.506Z,21.60
2019-05-13T10:01:56.591Z,21.50
2019-05-13T10:12:07.187Z,21.30
2019-05-13T10:17:13.176Z,20.90
2019-05-13T10:22:17.388Z,20.20
2019-05-13T10:27:22.513Z,20.00
2019-05-13T10:32:32.768Z,19.90
2019-05-13T10:37:41.484Z,19.60
2019-05-13T10:42:48.718Z,19.60
2019-05-13T10:47:56.530Z,19.60
2019-05-13T10:53:02.725Z,19.70
2019-05-13T10:58:07.213Z,19.90
2019-05-13T11:03:11.780Z,19.50
2019-05-13T11:08:16.486Z,19.70
2019-05-13T11:13:23.144Z,19.30
2019-05-13T11:18:27.261Z,19.10
2019-05-13T11:23:32.290Z,19.10
2019-05-13T11:28:37.232Z,19.30
2019-05-13T11:33:43.930Z,19.20
2019-05-13T11:38:47.983Z,19.60
2019-05-13T11:44:11.015Z,19.30
2019-05-13T11:48:58.746Z,18.80
2019-05-13T11:54:03.380Z,18.60
2019-05-13T11:59:06.850Z,18.70
2019-05-13T12:04:11.674Z,18.40
2019-05-13T12:09:15.851Z,17.80
2019-05-13T12:14:43.020Z,17.30
2019-05-13T12:19:27.319Z,16.80
2019-05-13T12:24:31.931Z,16.70
2019-05-13T12:29:35.231Z,16.60
2019-05-13T12:34:45.003Z,16.60
2019-05-13T12:39:46.331Z,16.70
2019-05-13T12:45:03.838Z,16.70
2019-05-13T12:49:56.756Z,16.60
2019-05-13T12:55:03.212Z,16.40
2019-05-13T13:00:08.183Z,16.60
2019-05-13T13:05:19.205Z,16.70
2019-05-13T13:10:22.867Z,16.60
2019-05-13T13:15:38.299Z,16.40
2019-05-13T13:20:41.617Z,16.40
2019-05-13T13:25:52.445Z,16.70
2019-05-13T13:30:53.007Z,16.70
2019-05-13T13:36:00.192Z,16.70
2019-05-13T13:41:08.172Z,16.70
2019-05-13T13:46:31.656Z,16.60
2019-05-13T13:51:18.887Z,16.60
2019-05-13T13:56:25.276Z,16.70
2019-05-13T14:01:32.522Z,16.70
2019-05-13T14:06:59.590Z,21.30
2019-05-13T14:11:41.990Z,16.60
2019-05-13T14:16:46.842Z,16.70
2019-05-13T14:21:52.483Z,16.60
2019-05-13T14:26:56.815Z,16.60
2019-05-13T14:32:01.866Z,16.60
2019-05-13T14:37:05.839Z,16.60
2019-05-13T14:42:11.690Z,16.60
2019-05-13T14:47:15.974Z,16.40
2019-05-13T14:52:22.238Z,16.40
2019-05-13T14:57:26.177Z,16.50
2019-05-13T15:02:31.658Z,16.50
2019-05-13T15:07:36.420Z,16.40
2019-05-13T15:12:41.546Z,16.30
2019-05-13T15:17:45.848Z,16.20
2019-05-13T15:22:51.889Z,16.30
2019-05-13T15:27:56.463Z,16.20
2019-05-13T15:33:01.768Z,16.20
2019-05-13T15:38:06.057Z,16.10
2019-05-13T15:43:11.681Z,16.10
2019-05-13T15:48:16.163Z,16.00
2019-05-13T15:53:21.487Z,16.00
2019-05-13T15:58:38.359Z,15.90
2019-05-13T16:03:32.398Z,15.80
2019-05-13T16:08:35.731Z,15.80
2019-05-13T16:13:40.056Z,15.70
2019-05-13T16:18:44.104Z,15.70
2019-05-13T16:23:48.129Z,15.60
2019-05-13T16:28:52.769Z,15.50
2019-05-13T16:33:57.236Z,15.30
2019-05-13T16:39:05.817Z,15.10
2019-05-13T16:44:11.904Z,15.00
2019-05-13T16:49:17.885Z,14.90
2019-05-13T16:54:22.227Z,14.70
2019-05-13T16:59:31.468Z,14.60
2019-05-13T17:04:35.160Z,14.40
2019-05-13T17:09:41.415Z,14.30
2019-05-13T17:14:44.895Z,14.20
2019-05-13T17:19:51.601Z,14.10
2019-05-13T17:24:55.031Z,14.10
2019-05-13T17:30:01.906Z,14.00
2019-05-13T17:35:05.503Z,13.90
2019-05-13T17:40:11.867Z,13.80
2019-05-13T17:45:15.747Z,13.60
2019-05-13T17:50:22.080Z,13.50
2019-05-13T17:55:26.125Z,13.40
2019-05-13T18:00:32.321Z,13.30
2019-05-13T18:05:36.941Z,13.20
2019-05-13T18:10:41.966Z,13.00
2019-05-13T18:15:46.242Z,12.80
2019-05-13T18:20:52.088Z,12.70
2019-05-13T18:25:56.313Z,12.50
2019-05-13T18:31:01.803Z,12.30
2019-05-13T18:36:06.092Z,12.20
2019-05-13T18:41:12.477Z,12.10
2019-05-13T18:46:17.136Z,12.00
2019-05-13T18:51:21.170Z,11.90
2019-05-13T18:56:25.611Z,11.80
2019-05-13T19:01:29.578Z,11.70
2019-05-13T19:06:34.175Z,11.50
2019-05-13T19:11:38.259Z,11.30
2019-05-13T19:16:42.448Z,11.10
2019-05-13T19:21:46.519Z,11.00
2019-05-13T19:26:52.124Z,10.80
2019-05-13T19:31:56.281Z,10.70
2019-05-13T19:37:02.401Z,10.50
2019-05-13T19:42:06.830Z,10.40
2019-05-13T19:47:12.464Z,10.40
2019-05-13T19:52:17.147Z,10.20
2019-05-13T19:57:21.597Z,10.00
2019-05-13T20:02:25.633Z,9.80
2019-05-13T20:07:31.849Z,9.60
2019-05-13T20:12:35.536Z,9.50
2019-05-13T20:17:41.639Z,9.40
2019-05-13T20:22:46.386Z,9.40
2019-05-13T20:27:51.563Z,9.30
2019-05-13T20:32:56.116Z,9.10
2019-05-13T20:38:02.232Z,9.00
2019-05-13T20:43:06.550Z,8.80
2019-05-13T20:48:11.920Z,8.60
2019-05-13T20:53:16.205Z,8.60
2019-05-13T20:58:21.454Z,8.70
2019-05-13T21:03:25.536Z,8.70
2019-05-13T21:08:31.961Z,8.50
2019-05-13T21:13:35.929Z,8.30
2019-05-13T21:18:42.062Z,8.10
2019-05-13T21:23:45.950Z,7.90
2019-05-13T21:28:52.195Z,7.90
2019-05-13T21:33:56.526Z,7.80
2019-05-13T21:39:01.629Z,7.70
2019-05-13T21:44:06.022Z,7.70
2019-05-13T21:49:11.836Z,7.50
2019-05-13T21:54:15.686Z,7.30
2019-05-13T21:59:23.067Z,7.20
2019-05-13T22:04:26.005Z,7.20
2019-05-13T22:09:31.714Z,7.20
2019-05-13T22:14:36.091Z,7.10
2019-05-13T22:19:41.976Z,7.10
2019-05-13T22:24:46.703Z,7.00
2019-05-13T22:29:51.664Z,6.70
2019-05-13T22:34:55.950Z,6.60
2019-05-13T22:40:01.644Z,6.60
2019-05-13T22:45:06.473Z,6.40
2019-05-13T22:50:11.507Z,6.10
2019-05-13T22:55:15.826Z,6.00
2019-05-13T23:00:22.180Z,6.00
2019-05-13T23:05:26.124Z,6.00
2019-05-13T23:10:31.801Z,6.00
2019-05-13T23:15:36.566Z,5.90
2019-05-13T23:20:41.048Z,5.70
2019-05-13T23:25:45.319Z,5.60
2019-05-13T23:30:51.170Z,5.30
2019-05-13T23:35:55.513Z,5.10
2019-05-13T23:41:01.878Z,4.90
2019-05-13T23:46:05.771Z,4.80
2019-05-13T23:51:09.781Z,4.60
2019-05-13T23:56:13.848Z,4.40
